This is the latest recevied weather packets stored in our database for station/object HJ3GNC-17. If no packets are shown the sender has not sent any weather packets the latest 10 day(s).
| Time | Temp. | Humidity | Pressure | Rain* | Wind** | Luminosity | Snow |
|---|---|---|---|---|---|---|---|
| 1777222174 | 12.22° C | 70% | 1015 hPa | 0 mm | - | - | - |
| 1777221171 | 12.22° C | 70% | 1015 hPa | 0 mm | - | - | - |
| 1777220191 | 12.22° C | 70% | 1016 hPa | 0 mm | - | - | - |
| 1777219229 | 12.22° C | 70% | 1016 hPa | 0 mm | - | - | - |
| 1777218282 | 12.22° C | 71% | 1016 hPa | 0 mm | - | - | - |
| 1777217341 | 12.22° C | 72% | 1017 hPa | 0 mm | - | - | - |
| 1777216394 | 12.78° C | 72% | 1017 hPa | 0 mm | - | - | - |
| 1777215429 | 11.11° C | 82% | 1017 hPa | 0 mm | - | - | - |
| 1777214447 | 10° C | 88% | 1017 hPa | 0 mm | - | - | - |
| 1777213502 | 10.56° C | 89% | 1017 hPa | 0 mm | - | - | - |
| 1777212489 | 10.56° C | 90% | 1017 hPa | 0 mm | - | - | - |
| 1777211525 | 11.11° C | 91% | 1017 hPa | 0 mm | - | - | - |
| 1777209617 | 8.33° C | 99% | 1018 hPa | 0 mm | - | - | - |
| 1777208664 | 8.89° C | 99% | 1018 hPa | 0 mm | - | - | - |
| 1777207706 | 8.89° C | 99% | 1018 hPa | 0 mm | - | - | - |
| 1777206765 | 6.67° C | 98% | 1018 hPa | 0 mm | - | - | - |
| 1777205746 | 6.67° C | 97% | 1018 hPa | 0 mm | - | - | - |
| 1777203819 | 6.67° C | 97% | 1018 hPa | 0 mm | - | - | - |
| 1777202876 | 6.67° C | 97% | 1018 hPa | 0 mm | - | - | - |
| 1777201934 | 6.67° C | 97% | 1018 hPa | 0 mm | - | - | - |
| 1777200991 | 6.67° C | 97% | 1018 hPa | 0 mm | - | - | - |
| 1777200049 | 6.67° C | 97% | 1018 hPa | 0 mm | - | - | - |
| 1777199105 | 6.67° C | 97% | 1017 hPa | 0 mm | - | - | - |
| 1777198138 | 6.67° C | 97% | 1017 hPa | 0 mm | - | - | - |
| 1777197194 | 6.67° C | 97% | 1017 hPa | 0 mm | - | - | - |
* Rain latest hour (hover to see other rain measurements)
** Current wind speed in m/s (hover to see current wind gust speed)